Nearby METAR Reports

 

KGIF - Winter Haven, Florida, USA
Distance from station: SW 11mi, 18km
Updated: Thu, 23-Sep-2021 4:53pm EDT
Overcast
Overcast
 Wind from N
Wind: N 6 mph , 9 km/h
Temperature: 88°F , 31°C
Heat Index: 93°F , 34°C
Dew Point: 70°F , 21°C
Humidity: 55%
Barometer: 29.87 inHg , 1011.5 hPa
Clouds: Overcast
Visibility: 10 miles , 16 km
Cloud details: Mostly cloudy 4300 ft
Mostly cloudy 5000 ft
Overcast 7500 ft
2021/09/23 20:53 KGIF 232053Z AUTO 35005KT 10SM BKN043 BKN050 OVC075 31/21 A2987 RMK AO2 SLP114 T03110206 56012
KISM - Kissimmee/Orland, Florida, USA
Distance from station: NE 13mi, 22km
Updated: Thu, 23-Sep-2021 4:56pm EDT
Overcast
Overcast
 Wind from NW
Wind: NW 5 mph , 7 km/h
Temperature: 90°F , 32°C
Heat Index: 96°F , 36°C
Dew Point: 70°F , 21°C
Humidity: 52%
Barometer: 29.88 inHg , 1011.9 hPa
Clouds: Overcast
Visibility: 10 miles , 16 km
Cloud details: Mostly cloudy 5500 ft
Overcast 7000 ft
2021/09/23 20:56 KISM 232056Z 31004KT 10SM BKN055 OVC070 32/21 A2988 RMK AO2 SLP118 6//// T03190212 PNO $
 
KBOW - Bartow Municipal, Florida, USA
Distance from station: SSW 19mi, 31km
Updated: Thu, 23-Sep-2021 5:35pm EDT
Clear
Clear
 Wind from varies
Wind: varies 6 mph , 9 km/h
Temperature: 88°F , 31°C
Heat Index: 93°F , 34°C
Dew Point: 70°F , 21°C
Humidity: 55%
Barometer: 29.86 inHg , 1011.2 hPa
Clouds: Clear
Visibility: 10 miles , 16 km
2021/09/23 21:35 KBOW 232135Z AUTO VRB05KT 10SM CLR 31/21 A2986 RMK AO2
KMCO - Orlando, Florida, USA
Distance from station: NE 24mi, 39km
Updated: Thu, 23-Sep-2021 4:53pm EDT
Partly cloudy
Partly cloudy
 Wind from NW
Wind: NW 8 mph , 13 km/h
Temperature: 88°F , 31°C
Heat Index: 93°F , 34°C
Dew Point: 70°F , 21°C
Humidity: 55%
Barometer: 29.86 inHg , 1011.2 hPa
Clouds: Partly cloudy
Visibility: 10 miles , 16 km
Cloud details: Few Clouds 4000 ft
Partly cloudy 7500 ft
Partly cloudy 15000 ft
Partly cloudy 25000 ft
2021/09/23 20:53 KMCO 232053Z 32007KT 10SM FEW040 SCT075 SCT150 SCT250 31/21 A2986 RMK AO2 SLP110 T03110211 56013
 
KLAL - Lakeland Regiona, Florida, USA
Distance from station: WSW 28mi, 46km
Updated: Thu, 23-Sep-2021 4:50pm EDT
Partly cloudy
Partly cloudy
 Wind from N
Wind: N 8 mph , 13 km/h
Temperature: 88°F , 31°C
Heat Index: 95°F , 35°C
Dew Point: 72°F , 22°C
Humidity: 59%
Barometer: 29.86 inHg , 1011.2 hPa
Clouds: Partly cloudy
Visibility: 10 miles , 16 km
Cloud details: Partly cloudy 5000 ft
2021/09/23 20:50 KLAL 232050Z 36007KT 10SM SCT050 31/22 A2986
KORL - Orlando, Florida, USA
Distance from station: NNE 31mi, 50km
Updated: Thu, 23-Sep-2021 4:53pm EDT
Mostly cloudy
Mostly cloudy
 Wind from varies
Wind: varies 7 mph , 11 km/h
Temperature: 88°F , 31°C
Heat Index: 93°F , 34°C
Dew Point: 70°F , 21°C
Humidity: 55%
Barometer: 29.87 inHg , 1011.5 hPa
Clouds: Mostly cloudy
Visibility: 10 miles , 16 km
Cloud details: Partly cloudy 4900 ft
Mostly cloudy 9000 ft
2021/09/23 20:53 KORL 232053Z VRB06KT 10SM SCT049 BKN090 31/21 A2987 RMK AO2 SLP115 T03110211 56012
 
KZPH - Zephyrhills, Florida, USA
Distance from station: W 33mi, 53km
Updated: Thu, 23-Sep-2021 5:35pm EDT
Overcast
Overcast
 Wind from N
Wind: N 8 mph , 13 km/h
Temperature: 88°F , 31°C
Heat Index: 95°F , 35°C
Dew Point: 72°F , 22°C
Humidity: 59%
Barometer: 29.87 inHg , 1011.5 hPa
Clouds: Overcast
Visibility: 10 miles , 16 km
Cloud details: Mostly cloudy 4100 ft
Overcast 4600 ft
2021/09/23 21:35 KZPH 232135Z AUTO 36007KT 10SM BKN041 OVC046 31/22 A2987 RMK A02 T03100219
KPCM - Plant City Muni, Florida, USA
Distance from station: WSW 36mi, 57km
Updated: Thu, 23-Sep-2021 5:35pm EDT
Partly cloudy
Partly cloudy
 Wind from N
Wind: N 5 mph , 7 km/h
Temperature: 88°F , 31°C
Heat Index: 95°F , 35°C
Dew Point: 72°F , 22°C
Humidity: 59%
Barometer: 29.88 inHg , 1011.9 hPa
Clouds: Partly cloudy
Visibility: 10 miles , 16 km
Cloud details: Partly cloudy 7000 ft
Partly cloudy 9000 ft
Partly cloudy 12000 ft
2021/09/23 21:35 KPCM 232135Z AUTO 35004KT 10SM SCT070 SCT090 SCT120 31/22 A2988 RMK AO2
 
KVDF - Tampa/Vandenburg, Florida, USA
Distance from station: WSW 45mi, 73km
Updated: Thu, 23-Sep-2021 5:35pm EDT
Mostly cloudy
Mostly cloudy
 Wind from NNW
Wind: NNW 3 mph , 6 km/h
Temperature: 88°F , 31°C
Heat Index: 98°F , 37°C
Dew Point: 75°F , 24°C
Humidity: 66%
Barometer: 29.86 inHg , 1011.2 hPa
Clouds: Mostly cloudy
Visibility: 10 miles , 16 km
Cloud details: Partly cloudy 5000 ft
Partly cloudy 6500 ft
Mostly cloudy 11000 ft
2021/09/23 21:35 KVDF 232135Z AUTO 33003KT 10SM SCT050 SCT065 BKN110 31/24 A2986 RMK AO2
KLEE - Leesburg, Florida, USA
Distance from station: NNW 46mi, 74km
Updated: Thu, 23-Sep-2021 4:53pm EDT
Mostly cloudy
Mostly cloudy
 Wind from N
Wind: N 7 mph , 11 km/h
Temperature: 90°F , 32°C
Heat Index: 97°F , 36°C
Dew Point: 72°F , 22°C
Humidity: 55%
Barometer: 29.89 inHg , 1012.2 hPa
Clouds: Mostly cloudy
Visibility: 10 miles , 16 km
Cloud details: Mostly cloudy 6000 ft
2021/09/23 20:53 KLEE 232053Z 36006KT 10SM BKN060 32/22 A2989 RMK AO2 SLP120 T03170217 56010
 
KSFB - Sanford/Orlando, Florida, USA
Distance from station: NNE 47mi, 76km
Updated: Thu, 23-Sep-2021 4:53pm EDT
Overcast
Overcast
 Wind from NNE
Wind: NNE 9 mph , 15 km/h
Temperature: 84°F , 29°C
Heat Index: 89°F , 32°C
Dew Point: 72°F , 22°C
Humidity: 66%
Barometer: 29.87 inHg , 1011.5 hPa
Clouds: Overcast
Visibility: 10 miles , 16 km
Cloud details: Few Clouds 3900 ft
Partly cloudy 4700 ft
Overcast 6500 ft
2021/09/23 20:53 KSFB 232053Z 02008KT 10SM FEW039 SCT047 OVC065 29/22 A2987 RMK AO2 SLP113 T02940222 56012